createdAt,value
2023-03-24T00:01:05.588Z,97015.42
2023-03-24T00:03:39.962Z,97014.53
2023-03-24T00:06:15.504Z,97017.45
2023-03-24T00:08:49.633Z,97017.62
2023-03-24T00:11:22.825Z,97019.95
2023-03-24T00:13:58.807Z,97021.50
2023-03-24T00:16:35.029Z,97021.87
2023-03-24T00:19:07.810Z,97021.73
2023-03-24T00:21:42.491Z,97019.95
2023-03-24T00:24:16.395Z,97019.84
2023-03-24T00:26:52.074Z,97014.05
2023-03-24T00:29:25.857Z,97008.80
2023-03-24T00:31:58.557Z,97009.55
2023-03-24T00:34:31.446Z,97013.88
2023-03-24T00:37:05.517Z,97012.23
2023-03-24T00:39:38.019Z,97012.48
2023-03-24T00:42:11.027Z,97009.01
2023-03-24T00:44:42.488Z,97005.01
2023-03-24T00:47:18.299Z,97003.77
2023-03-24T00:49:54.087Z,97002.41
2023-03-24T00:52:34.387Z,97000.40
2023-03-24T00:55:10.021Z,97001.19
2023-03-24T00:57:50.165Z,96999.15
2023-03-24T01:00:26.398Z,96996.53
2023-03-24T01:03:03.686Z,96991.25
2023-03-24T01:05:36.961Z,96990.44
2023-03-24T01:08:11.484Z,96986.64
2023-03-24T01:10:50.800Z,96985.16
2023-03-24T01:13:24.826Z,96982.64
2023-03-24T01:15:58.842Z,96980.58
2023-03-24T01:18:31.654Z,96981.02
2023-03-24T01:21:04.759Z,96977.73
2023-03-24T01:23:38.152Z,96973.77
2023-03-24T01:26:12.768Z,96971.34
2023-03-24T01:28:45.549Z,96970.23
2023-03-24T01:31:18.839Z,96970.23
2023-03-24T01:33:49.719Z,96972.75
2023-03-24T01:36:22.610Z,96967.78
2023-03-24T01:38:59.165Z,96965.99
2023-03-24T01:41:39.146Z,96971.71
2023-03-24T01:44:33.210Z,96968.31
2023-03-24T01:47:19.104Z,96967.39
2023-03-24T01:49:55.123Z,96968.05
2023-03-24T01:52:30.877Z,96964.42
2023-03-24T01:55:05.764Z,96968.63
2023-03-24T01:57:42.777Z,96971.08
2023-03-24T02:00:21.018Z,96969.23
2023-03-24T02:03:23.514Z,96972.73
2023-03-24T02:06:02.782Z,96968.96
2023-03-24T02:08:42.757Z,96966.95
2023-03-24T02:11:15.749Z,96965.41
2023-03-24T02:13:55.454Z,96965.32
2023-03-24T02:17:11.705Z,96965.80
2023-03-24T02:20:14.027Z,96964.83
2023-03-24T02:23:31.948Z,96967.15
2023-03-24T02:26:33.883Z,96959.34
2023-03-24T02:29:21.993Z,96957.02
2023-03-24T02:32:11.257Z,96947.98
2023-03-24T02:35:12.421Z,96945.73
2023-03-24T02:38:16.477Z,96947.83
2023-03-24T02:40:50.177Z,96944.27
2023-03-24T02:43:43.646Z,96940.78
2023-03-24T02:46:25.627Z,96940.96
2023-03-24T02:49:09.529Z,96941.12
2023-03-24T02:51:49.684Z,96937.23
2023-03-24T02:54:29.163Z,96935.79
2023-03-24T02:57:11.539Z,96932.55
2023-03-24T03:00:09.616Z,96929.46
2023-03-24T03:03:17.984Z,96925.05
2023-03-24T03:05:58.992Z,96921.39
2023-03-24T03:08:35.625Z,96920.35
2023-03-24T03:11:11.795Z,96922.87
2023-03-24T03:13:50.822Z,96921.91
2023-03-24T03:16:34.963Z,96926.30
2023-03-24T03:19:12.927Z,96922.70
2023-03-24T03:21:49.106Z,96917.86
2023-03-24T03:24:28.251Z,96916.56
2023-03-24T03:27:04.895Z,96911.56
2023-03-24T03:29:42.397Z,96908.44
2023-03-24T03:32:19.818Z,96905.43
2023-03-24T03:34:58.660Z,96906.98
2023-03-24T03:37:36.208Z,96903.83
2023-03-24T03:40:13.481Z,96901.27
2023-03-24T03:42:48.978Z,96903.70
2023-03-24T03:45:20.343Z,96903.08
2023-03-24T03:47:55.285Z,96906.55
2023-03-24T03:50:28.270Z,96905.56
2023-03-24T03:53:02.941Z,96909.89
2023-03-24T03:55:36.236Z,96906.38
2023-03-24T03:58:07.439Z,96909.65
2023-03-24T04:00:47.408Z,96908.50
2023-03-24T04:03:59.293Z,96911.37
2023-03-24T04:07:08.577Z,96905.27
2023-03-24T04:09:55.040Z,96905.18
2023-03-24T04:12:58.276Z,96905.73
2023-03-24T04:16:01.472Z,96908.14
2023-03-24T04:19:07.259Z,96910.89
2023-03-24T04:21:55.400Z,96912.52
2023-03-24T04:24:41.503Z,96913.11
2023-03-24T04:27:27.496Z,96910.86
2023-03-24T04:30:10.867Z,96908.41
2023-03-24T04:32:50.776Z,96911.55
2023-03-24T04:35:33.207Z,96912.65
2023-03-24T04:38:28.507Z,96913.05
2023-03-24T04:41:18.211Z,96911.09
2023-03-24T04:43:58.219Z,96906.94
2023-03-24T04:46:31.570Z,96904.00
2023-03-24T04:49:13.481Z,96903.96
2023-03-24T04:51:47.896Z,96903.95
2023-03-24T04:54:26.317Z,96902.28
2023-03-24T04:57:06.295Z,96902.58
2023-03-24T04:59:47.817Z,96899.52
2023-03-24T05:02:21.878Z,96900.19
2023-03-24T05:05:00.748Z,96900.21
2023-03-24T05:07:39.123Z,96903.55
2023-03-24T05:10:20.116Z,96903.48
2023-03-24T05:12:58.742Z,96907.40
2023-03-24T05:16:03.876Z,96903.36
2023-03-24T05:18:59.374Z,96902.41
2023-03-24T05:21:35.273Z,96901.86
2023-03-24T05:24:08.957Z,96905.21
2023-03-24T05:26:40.024Z,96909.77
2023-03-24T05:29:20.599Z,96906.63
2023-03-24T05:31:54.536Z,96909.16
2023-03-24T05:34:28.272Z,96916.23
2023-03-24T05:37:17.233Z,96910.45
2023-03-24T05:39:56.002Z,96911.10
2023-03-24T05:42:51.177Z,96913.45
2023-03-24T05:45:25.487Z,96916.58
2023-03-24T05:47:58.792Z,96915.73
2023-03-24T05:50:42.740Z,96916.67
2023-03-24T05:53:15.440Z,96917.13
2023-03-24T05:56:13.450Z,96917.69
2023-03-24T05:59:04.694Z,96920.88
2023-03-24T06:02:15.635Z,96915.96
2023-03-24T06:04:54.003Z,96915.90
2023-03-24T06:07:31.165Z,96911.59
2023-03-24T06:10:05.243Z,96911.82
2023-03-24T06:12:44.700Z,96911.73
2023-03-24T06:15:17.817Z,96914.60
2023-03-24T06:17:55.158Z,96914.66
2023-03-24T06:20:37.724Z,96910.70
2023-03-24T06:23:13.025Z,96911.88
2023-03-24T06:26:01.757Z,96909.13
2023-03-24T06:28:35.665Z,96908.27
2023-03-24T06:31:19.691Z,96911.54
2023-03-24T06:33:52.805Z,96911.42
2023-03-24T06:36:26.178Z,96908.33
2023-03-24T06:38:57.121Z,96905.80
2023-03-24T06:41:30.075Z,96905.59
2023-03-24T06:44:04.675Z,96907.19
2023-03-24T06:46:37.711Z,96901.58
2023-03-24T06:49:10.528Z,96904.05
2023-03-24T06:51:43.045Z,96897.92
2023-03-24T06:54:17.744Z,96893.98
2023-03-24T06:56:50.828Z,96893.75
2023-03-24T06:59:25.236Z,96891.55
2023-03-24T07:01:57.812Z,96888.23
2023-03-24T07:04:36.857Z,96880.33
2023-03-24T07:08:08.277Z,96884.70
2023-03-24T07:10:48.026Z,96884.93
2023-03-24T07:13:22.949Z,96885.45
2023-03-24T07:15:56.440Z,96884.41
2023-03-24T07:18:29.198Z,96884.25
2023-03-24T07:21:09.068Z,96884.48
2023-03-24T07:23:42.214Z,96886.81
2023-03-24T07:26:39.113Z,96880.37
2023-03-24T07:29:23.408Z,96883.85
2023-03-24T07:32:13.210Z,96884.70
2023-03-24T07:34:47.379Z,96881.02
2023-03-24T07:37:20.386Z,96881.30
2023-03-24T07:39:54.586Z,96877.75
2023-03-24T07:42:27.381Z,96876.57
2023-03-24T07:45:38.194Z,96877.23
2023-03-24T07:48:11.706Z,96875.32
2023-03-24T07:50:44.726Z,96872.99
2023-03-24T07:53:35.779Z,96874.27
2023-03-24T07:56:09.708Z,96870.26
2023-03-24T07:58:47.697Z,96860.50
2023-03-24T08:01:30.612Z,96857.07
2023-03-24T08:04:05.132Z,96860.34
2023-03-24T08:06:56.170Z,96859.02
2023-03-24T08:09:29.156Z,96861.42
2023-03-24T08:12:09.977Z,96861.54
2023-03-24T08:14:54.842Z,96854.40
2023-03-24T08:17:27.439Z,96855.31
2023-03-24T08:20:02.049Z,96853.43
2023-03-24T08:22:36.403Z,96854.56
2023-03-24T08:25:10.762Z,96856.08
2023-03-24T08:27:45.337Z,96852.63
2023-03-24T08:30:21.469Z,96852.77
2023-03-24T08:32:56.584Z,96851.91
2023-03-24T08:35:31.796Z,96848.89
2023-03-24T08:38:07.003Z,96843.69
2023-03-24T08:40:42.388Z,96840.23
2023-03-24T08:43:17.883Z,96837.59
2023-03-24T08:45:50.888Z,96838.36
2023-03-24T08:48:24.248Z,96838.27
2023-03-24T08:50:57.325Z,96839.07
2023-03-24T08:53:29.846Z,96834.34
2023-03-24T08:56:03.267Z,96833.46
2023-03-24T08:58:37.869Z,96832.86
2023-03-24T09:01:10.633Z,96829.82
2023-03-24T09:03:45.123Z,96824.30
2023-03-24T09:06:17.987Z,96821.66
2023-03-24T09:08:50.875Z,96825.13
2023-03-24T09:11:24.866Z,96822.92
2023-03-24T09:13:58.110Z,96816.19
2023-03-24T09:16:30.893Z,96813.23
2023-03-24T09:19:03.656Z,96810.95
2023-03-24T09:21:36.362Z,96804.60
2023-03-24T09:24:09.704Z,96799.02
2023-03-24T09:26:42.739Z,96789.92
2023-03-24T09:29:15.298Z,96789.60
2023-03-24T09:31:47.893Z,96788.67
2023-03-24T09:34:20.349Z,96790.85
2023-03-24T09:36:55.689Z,96783.73
2023-03-24T09:39:28.539Z,96783.42
2023-03-24T09:42:01.376Z,96780.14
2023-03-24T09:44:38.190Z,96780.56
2023-03-24T09:47:28.684Z,96776.48
2023-03-24T09:50:04.592Z,96770.87
2023-03-24T09:52:44.785Z,96767.63
2023-03-24T09:55:23.071Z,96762.92
2023-03-24T09:57:58.892Z,96758.96
2023-03-24T10:00:33.296Z,96760.12
2023-03-24T10:03:23.544Z,96759.53
2023-03-24T10:06:00.317Z,96757.17
2023-03-24T10:08:37.728Z,96752.73
2023-03-24T10:11:18.773Z,96749.90
2023-03-24T10:14:05.396Z,96747.82
2023-03-24T10:16:43.584Z,96747.63
2023-03-24T10:19:30.538Z,96741.64
2023-03-24T10:22:12.642Z,96742.78
2023-03-24T10:24:53.013Z,96733.40
2023-03-24T10:27:31.886Z,96734.50
2023-03-24T10:30:13.885Z,96738.64
2023-03-24T10:32:47.429Z,96727.12
2023-03-24T10:35:24.957Z,96730.97
2023-03-24T10:38:02.976Z,96726.39
2023-03-24T10:40:37.163Z,96723.52
2023-03-24T10:43:10.303Z,96723.01
2023-03-24T10:45:45.958Z,96724.89
2023-03-24T10:48:34.927Z,96726.17
2023-03-24T10:51:08.522Z,96721.89
2023-03-24T10:53:41.364Z,96719.36
2023-03-24T10:56:20.349Z,96720.84
2023-03-24T10:58:53.618Z,96717.02
2023-03-24T11:01:30.884Z,96716.95
2023-03-24T11:04:24.136Z,96715.05
2023-03-24T11:07:06.306Z,96707.01
2023-03-24T11:09:47.138Z,96704.08
2023-03-24T11:12:28.546Z,96701.48
2023-03-24T11:15:21.966Z,96700.88
2023-03-24T11:18:00.329Z,96697.14
2023-03-24T11:20:36.917Z,96694.52
2023-03-24T11:23:15.026Z,96690.36
2023-03-24T11:25:51.986Z,96687.99
2023-03-24T11:28:29.193Z,96682.84
2023-03-24T11:31:11.337Z,96677.66
2023-03-24T11:33:52.203Z,96677.61
2023-03-24T11:36:46.314Z,96667.11
2023-03-24T11:39:23.504Z,96661.16
2023-03-24T11:42:04.186Z,96658.11
2023-03-24T11:44:47.573Z,96652.31
2023-03-24T11:47:29.670Z,96651.95
2023-03-24T11:50:19.195Z,96645.27
2023-03-24T11:52:55.660Z,96645.42
2023-03-24T11:55:38.048Z,96636.13
2023-03-24T11:58:20.417Z,96631.14
2023-03-24T12:00:59.133Z,96633.42
2023-03-24T12:04:09.428Z,96629.23
2023-03-24T12:06:54.978Z,96625.83
2023-03-24T12:09:36.986Z,96620.39
2023-03-24T12:12:23.460Z,96614.02
2023-03-24T12:15:20.628Z,96615.52
2023-03-24T12:18:11.221Z,96609.23
2023-03-24T12:20:50.537Z,96604.98
2023-03-24T12:23:30.461Z,96597.02
2023-03-24T12:26:17.218Z,96594.94
2023-03-24T12:28:59.287Z,96590.56
2023-03-24T12:31:56.810Z,96596.50
2023-03-24T12:34:55.428Z,96586.11
2023-03-24T12:37:35.707Z,96588.09
2023-03-24T12:40:33.578Z,96586.14
2023-03-24T12:43:13.905Z,96583.95
2023-03-24T12:45:53.043Z,96575.45
2023-03-24T12:48:50.826Z,96571.17
2023-03-24T12:51:33.349Z,96565.69
2023-03-24T12:54:19.672Z,96567.33
2023-03-24T12:56:57.632Z,96558.02
2023-03-24T12:59:36.320Z,96557.16
2023-03-24T13:02:28.881Z,96555.45
2023-03-24T13:05:09.999Z,96550.44
2023-03-24T13:07:47.765Z,96550.09
2023-03-24T13:10:26.083Z,96552.52
2023-03-24T13:13:01.527Z,96546.67
2023-03-24T13:15:39.181Z,96545.06
2023-03-24T13:18:24.548Z,96542.60
2023-03-24T13:21:18.039Z,96543.16
2023-03-24T13:23:57.787Z,96534.54
2023-03-24T13:26:41.458Z,96534.76
2023-03-24T13:29:38.425Z,96530.45
2023-03-24T13:32:30.898Z,96527.73
2023-03-24T13:35:12.919Z,96523.50
2023-03-24T13:37:50.230Z,96519.69
2023-03-24T13:40:28.533Z,96520.44
2023-03-24T13:43:03.450Z,96519.05
2023-03-24T13:45:43.518Z,96520.55
2023-03-24T13:48:34.129Z,96516.36
2023-03-24T13:51:18.990Z,96516.45
2023-03-24T13:53:55.800Z,96517.44
2023-03-24T13:56:34.470Z,96514.23
2023-03-24T13:59:24.706Z,96512.26
2023-03-24T14:02:42.548Z,96509.67
2023-03-24T14:05:35.109Z,96507.02
2023-03-24T14:08:19.460Z,96505.63
2023-03-24T14:10:53.511Z,96509.11
2023-03-24T14:13:37.303Z,96506.27
2023-03-24T14:16:43.001Z,96500.17
2023-03-24T14:19:31.663Z,96502.70
2023-03-24T14:22:18.056Z,96497.41
2023-03-24T14:25:01.277Z,96498.55
2023-03-24T14:27:41.516Z,96493.35
2023-03-24T14:30:30.859Z,96488.55
2023-03-24T14:33:04.814Z,96484.06
2023-03-24T14:35:42.382Z,96484.55
2023-03-24T14:38:26.647Z,96482.40
2023-03-24T14:41:07.951Z,96483.33
2023-03-24T14:43:58.070Z,96480.75
2023-03-24T14:46:48.241Z,96481.91
2023-03-24T14:49:26.263Z,96475.66
2023-03-24T14:52:11.276Z,96474.37
2023-03-24T14:54:46.624Z,96471.32
2023-03-24T14:57:24.514Z,96466.96
2023-03-24T15:00:07.517Z,96466.38
2023-03-24T15:02:42.725Z,96467.66
2023-03-24T15:05:32.876Z,96469.27
2023-03-24T15:08:13.737Z,96468.11
2023-03-24T15:10:50.383Z,96463.73
2023-03-24T15:13:41.721Z,96462.77
2023-03-24T15:16:24.329Z,96456.81
2023-03-24T15:19:02.084Z,96453.69
2023-03-24T15:21:37.952Z,96450.56
2023-03-24T15:24:32.466Z,96452.39
2023-03-24T15:27:24.245Z,96452.41
2023-03-24T15:30:00.909Z,96450.05
2023-03-24T15:32:39.515Z,96445.10
2023-03-24T15:35:18.731Z,96445.61
2023-03-24T15:37:57.032Z,96445.13
2023-03-24T15:40:41.916Z,96442.43
2023-03-24T15:43:23.136Z,96445.19
2023-03-24T15:46:11.185Z,96444.05
2023-03-24T15:48:48.600Z,96448.29
2023-03-24T15:51:21.467Z,96447.36
2023-03-24T15:54:01.989Z,96446.07
2023-03-24T15:56:37.134Z,96453.15
2023-03-24T15:59:17.940Z,96448.09
2023-03-24T16:01:51.145Z,96446.11
2023-03-24T16:04:24.055Z,96450.77
2023-03-24T16:06:58.220Z,96453.73
2023-03-24T16:09:41.121Z,96455.08
2023-03-24T16:12:16.497Z,96452.08
2023-03-24T16:14:49.347Z,96448.48
2023-03-24T16:17:22.021Z,96444.97
2023-03-24T16:19:55.074Z,96444.19
2023-03-24T16:22:28.396Z,96440.29
2023-03-24T16:24:59.004Z,96437.30
2023-03-24T16:27:31.677Z,96441.91
2023-03-24T16:30:04.957Z,96445.25
2023-03-24T16:32:38.904Z,96445.46
2023-03-24T16:35:12.887Z,96444.86
2023-03-24T16:37:47.438Z,96448.74
2023-03-24T16:40:30.175Z,96452.70
2023-03-24T16:43:03.389Z,96452.48
2023-03-24T16:45:35.752Z,96462.74
2023-03-24T16:48:08.466Z,96463.38
2023-03-24T16:50:43.131Z,96469.50
2023-03-24T16:53:16.060Z,96470.27
2023-03-24T16:55:49.400Z,96472.08
2023-03-24T16:58:21.850Z,96473.44
2023-03-24T17:00:56.732Z,96475.30
2023-03-24T17:03:30.698Z,96481.25
2023-03-24T17:06:04.019Z,96487.27
2023-03-24T17:08:36.692Z,96493.54
2023-03-24T17:11:11.850Z,96501.18
2023-03-24T17:13:45.116Z,96506.29
2023-03-24T17:16:21.164Z,96508.36
2023-03-24T17:18:53.690Z,96504.88
2023-03-24T17:21:26.700Z,96508.84
2023-03-24T17:23:59.418Z,96504.90
2023-03-24T17:26:32.959Z,96508.47
2023-03-24T17:29:05.335Z,96506.95
2023-03-24T17:31:38.368Z,96508.61
2023-03-24T17:36:50.092Z,96510.77
2023-03-24T17:39:23.454Z,96514.09
2023-03-24T17:41:57.842Z,96509.10
2023-03-24T17:44:30.478Z,96507.07
2023-03-24T17:47:23.076Z,96505.33
2023-03-24T17:49:55.949Z,96499.92
2023-03-24T17:52:28.758Z,96502.03
2023-03-24T17:55:02.026Z,96503.20
2023-03-24T17:57:35.024Z,96501.77
2023-03-24T18:00:12.185Z,96500.04
2023-03-24T18:02:47.313Z,96496.10
2023-03-24T18:05:20.036Z,96481.48
2023-03-24T18:07:53.024Z,96470.06
2023-03-24T18:10:25.794Z,96469.63
2023-03-24T18:12:59.175Z,96471.58
2023-03-24T18:15:32.353Z,96474.98
2023-03-24T18:18:05.200Z,96482.16
2023-03-24T18:20:39.620Z,96490.94
2023-03-24T18:23:12.212Z,96499.90
2023-03-24T18:25:44.826Z,96504.13
2023-03-24T18:28:17.311Z,96499.46
2023-03-24T18:30:50.875Z,96506.78
2023-03-24T18:33:23.856Z,96510.27
2023-03-24T18:35:57.403Z,96507.46
2023-03-24T18:38:29.959Z,96509.84
2023-03-24T18:41:04.841Z,96513.05
2023-03-24T18:43:39.784Z,96514.77
2023-03-24T18:46:13.290Z,96520.10
2023-03-24T18:48:44.543Z,96523.59
2023-03-24T18:51:17.414Z,96530.70
2023-03-24T18:53:50.143Z,96539.86
2023-03-24T18:56:24.523Z,96533.90
2023-03-24T18:58:57.282Z,96525.83
2023-03-24T19:01:30.650Z,96520.70
2023-03-24T19:04:03.374Z,96521.64
2023-03-24T19:06:37.655Z,96521.95
2023-03-24T19:09:11.358Z,96516.63
2023-03-24T19:11:45.386Z,96520.85
2023-03-24T19:14:18.026Z,96530.08
2023-03-24T19:16:50.704Z,96534.69
2023-03-24T19:19:23.428Z,96542.44
2023-03-24T19:21:56.468Z,96539.89
2023-03-24T19:24:30.133Z,96539.44
2023-03-24T19:27:02.948Z,96536.39
2023-03-24T19:29:36.329Z,96534.10
2023-03-24T19:32:08.999Z,96533.71
2023-03-24T19:34:41.978Z,96524.67
2023-03-24T19:37:14.598Z,96515.16
2023-03-24T19:39:47.498Z,96516.02
2023-03-24T19:42:20.064Z,96503.63
2023-03-24T19:44:53.729Z,96491.23
2023-03-24T19:47:34.789Z,96498.80
2023-03-24T19:50:16.819Z,96494.67
2023-03-24T19:52:50.143Z,96497.44
2023-03-24T19:55:42.920Z,96496.94
2023-03-24T19:58:16.369Z,96493.25
2023-03-24T20:00:47.429Z,96494.73
2023-03-24T20:03:20.103Z,96498.09
2023-03-24T20:05:53.250Z,96500.91
2023-03-24T20:08:26.398Z,96508.07
2023-03-24T20:10:59.501Z,96507.10
2023-03-24T20:13:37.095Z,96504.17
2023-03-24T20:16:15.155Z,96507.55
2023-03-24T20:18:48.828Z,96507.04
2023-03-24T20:21:42.854Z,96502.30
2023-03-24T20:24:27.587Z,96507.17
2023-03-24T20:27:01.329Z,96505.98
2023-03-24T20:29:34.448Z,96505.48
2023-03-24T20:32:07.607Z,96505.64
2023-03-24T20:34:40.549Z,96508.70
2023-03-24T20:37:13.346Z,96509.77
2023-03-24T20:39:49.323Z,96511.58
2023-03-24T20:42:24.765Z,96516.95
2023-03-24T20:45:15.223Z,96518.48
2023-03-24T20:47:48.459Z,96518.08
2023-03-24T20:50:21.665Z,96515.97
2023-03-24T20:52:52.886Z,96517.11
2023-03-24T20:55:27.353Z,96509.60
2023-03-24T20:58:01.804Z,96509.77
2023-03-24T21:00:34.856Z,96503.50
2023-03-24T21:03:08.428Z,96504.29
2023-03-24T21:05:42.432Z,96498.73
2023-03-24T21:08:14.820Z,96503.17
2023-03-24T21:10:47.980Z,96494.96
2023-03-24T21:13:21.786Z,96496.38
2023-03-24T21:15:54.788Z,96499.70
2023-03-24T21:18:28.452Z,96499.69
2023-03-24T21:21:04.195Z,96497.11
2023-03-24T21:23:39.574Z,96496.80
2023-03-24T21:26:14.767Z,96501.44
2023-03-24T21:28:47.797Z,96504.49
2023-03-24T21:31:23.779Z,96508.01
2023-03-24T21:33:58.005Z,96509.48
2023-03-24T21:36:31.417Z,96510.61
2023-03-24T21:39:07.225Z,96508.21
2023-03-24T21:41:40.298Z,96508.39
2023-03-24T21:44:13.158Z,96504.30
2023-03-24T21:46:48.538Z,96502.95
2023-03-24T21:49:23.073Z,96505.87
2023-03-24T21:51:57.199Z,96500.82
2023-03-24T21:54:31.024Z,96494.15
2023-03-24T21:57:04.386Z,96497.42
2023-03-24T21:59:40.179Z,96495.78
2023-03-24T22:02:17.907Z,96492.17
2023-03-24T22:04:50.636Z,96486.86
2023-03-24T22:07:24.958Z,96487.45
2023-03-24T22:09:58.276Z,96487.48
2023-03-24T22:12:30.830Z,96491.33
2023-03-24T22:15:04.287Z,96489.94
2023-03-24T22:17:37.461Z,96491.05
2023-03-24T22:20:14.999Z,96492.67
2023-03-24T22:22:47.914Z,96496.34
2023-03-24T22:25:21.832Z,96497.30
2023-03-24T22:27:56.518Z,96496.76
2023-03-24T22:30:29.025Z,96494.96
2023-03-24T22:33:01.686Z,96498.70
2023-03-24T22:35:34.724Z,96494.84
2023-03-24T22:38:08.085Z,96495.56
2023-03-24T22:40:41.785Z,96492.09
2023-03-24T22:43:14.636Z,96486.35
2023-03-24T22:45:47.639Z,96485.96
2023-03-24T22:48:20.203Z,96484.86
2023-03-24T22:50:54.587Z,96484.41
2023-03-24T22:53:27.638Z,96479.33
2023-03-24T22:56:00.110Z,96475.03
2023-03-24T22:58:32.899Z,96471.63
2023-03-24T23:01:06.421Z,96471.18
2023-03-24T23:03:42.040Z,96462.90
2023-03-24T23:06:16.217Z,96462.73
2023-03-24T23:08:49.992Z,96459.54
2023-03-24T23:11:22.913Z,96460.34
2023-03-24T23:14:05.714Z,96469.44
2023-03-24T23:16:39.854Z,96473.17
2023-03-24T23:19:12.941Z,96471.13
2023-03-24T23:21:46.863Z,96479.30
2023-03-24T23:24:19.973Z,96480.21
2023-03-24T23:26:52.514Z,96479.02
2023-03-24T23:29:25.092Z,96475.94
2023-03-24T23:31:57.844Z,96478.17
2023-03-24T23:34:30.749Z,96478.35
2023-03-24T23:37:04.225Z,96475.77
2023-03-24T23:39:37.190Z,96477.05
2023-03-24T23:42:09.859Z,96473.91
2023-03-24T23:44:42.432Z,96476.61
2023-03-24T23:47:15.167Z,96474.40
2023-03-24T23:49:47.925Z,96474.90
2023-03-24T23:52:20.805Z,96477.86
2023-03-24T23:54:54.437Z,96478.84
2023-03-24T23:57:26.992Z,96477.11
